RJBD(METAR)
09/15 19:00
METAR RJBD 151000Z 16006KT 9999 FEW035 BKN050 26/23 Q1005 RMK 1CU035
6SC050 A2969=
戻る
トップページへ戻る
IMOC Co,.Ltd.